Zaliv Vostok — A8RM6 — position and weather

sailwx.info

Track history (hours):
 
Tides and Currents Weather Stations Pressure Air Temp Water Temp Dewpoint Dewpoint Depression Visibility Wind Speed Wind Dir Waves Ship Positions

Zaliv Vostok

Last reported at 2014-Dec-29 21:07 UTC. Time now 2015-Mar-05 02:39 UTC.
Position N 01°59' E 102°14'.
Warning: this ship's position is months out of date.

Length 244 m; draft 8.4 m.

Type: Tanker. MMSI: 636014127.

Date/timePositionNaut miles runAvg speedWind from/ knotsBaromVisibWave heightAir tempDewpointWater temp
2014-Dec-29 21:07N 01°59' E 102°14'711.7
2014-Dec-29 20:32N 01°55' E 102°20'1111.1
2014-Dec-29 19:32N 01°50' E 102°30'1110.7
2014-Dec-29 18:31N 01°45' E 102°39'71 2.2
2014-Dec-28 10:25N 01°17' E 103°44'1 0.1
2014-Dec-27 19:05N 01°17' E 103°43'0 0.5
2014-Dec-27 18:33N 01°18' E 103°44'6 6.1
2014-Dec-27 17:33N 01°13' E 103°48'1 0.2
2014-Dec-27 12:23N 01°13' E 103°49'0 0.2
2014-Dec-27 11:34N 01°13' E 103°49'1 0.1
2014-Dec-26 15:33N 01°13' E 103°48'8 3.8
2014-Dec-26 13:32N 01°18' E 103°41'0 0.0
2014-Dec-25 11:30N 01°18' E 103°41'9 0.3
2014-Dec-24 08:33N 01°10' E 103°47'6 5.0
2014-Dec-24 07:25N 01°12' E 103°52'4 4.8
2014-Dec-24 06:33N 01°14' E 103°56'6 6.2
2014-Dec-24 05:33N 01°16' E 104°02'6 5.3
2014-Dec-24 04:28N 01°22' E 104°03'3 0.1
2014-Dec-23 04:24N 01°24' E 104°01'9 9.6
2014-Dec-23 03:31N 01°18' E 104°07'  
2014-Dec-20 08:24N 01°18' E 104°07'3 0.3
2014-Dec-19 23:07N 01°16' E 104°07'5 8.6
2014-Dec-19 22:33N 01°15' E 104°02'  
Track history (hours):
 
Tides and Currents Weather Stations Pressure Air Temp Water Temp Dewpoint Dewpoint Depression Visibility Wind Speed Wind Dir Waves Ship Positions

Zaliv Vostok

Last reported at 2014-Dec-29 21:07 UTC. Time now 2015-Mar-05 02:39 UTC.
Position N 01°59' E 102°14'.
Warning: this ship's position is months out of date.

Length 244 m; draft 8.4 m.

Type: Tanker. MMSI: 636014127.

Date/timePositionNaut miles runAvg speedWind from/ knotsBaromVisibWave heightAir tempDewpointWater temp
2014-Dec-29 21:07N 01°59' E 102°14'711.7
2014-Dec-29 20:32N 01°55' E 102°20'1111.1
2014-Dec-29 19:32N 01°50' E 102°30'1110.7
2014-Dec-29 18:31N 01°45' E 102°39'71 2.2
2014-Dec-28 10:25N 01°17' E 103°44'1 0.1
2014-Dec-27 19:05N 01°17' E 103°43'0 0.5
2014-Dec-27 18:33N 01°18' E 103°44'6 6.1
2014-Dec-27 17:33N 01°13' E 103°48'1 0.2
2014-Dec-27 12:23N 01°13' E 103°49'0 0.2
2014-Dec-27 11:34N 01°13' E 103°49'1 0.1
2014-Dec-26 15:33N 01°13' E 103°48'8 3.8
2014-Dec-26 13:32N 01°18' E 103°41'0 0.0
2014-Dec-25 11:30N 01°18' E 103°41'9 0.3
2014-Dec-24 08:33N 01°10' E 103°47'6 5.0
2014-Dec-24 07:25N 01°12' E 103°52'4 4.8
2014-Dec-24 06:33N 01°14' E 103°56'6 6.2
2014-Dec-24 05:33N 01°16' E 104°02'6 5.3
2014-Dec-24 04:28N 01°22' E 104°03'3 0.1
2014-Dec-23 04:24N 01°24' E 104°01'9 9.6
2014-Dec-23 03:31N 01°18' E 104°07'  
2014-Dec-20 08:24N 01°18' E 104°07'3 0.3
2014-Dec-19 23:07N 01°16' E 104°07'5 8.6
2014-Dec-19 22:33N 01°15' E 104°02'  

Dump ship's entire track history